createdAt,value
2019-05-05T00:00:28.956Z,71.50
2019-05-05T00:02:59.431Z,72.00
2019-05-05T00:05:35.735Z,72.00
2019-05-05T00:08:05.202Z,72.70
2019-05-05T00:10:35.536Z,72.30
2019-05-05T00:13:15.224Z,74.00
2019-05-05T00:15:45.494Z,72.80
2019-05-05T00:18:14.870Z,73.30
2019-05-05T00:20:44.661Z,73.50
2019-05-05T00:23:14.585Z,75.10
2019-05-05T00:25:44.728Z,74.10
2019-05-05T00:28:14.310Z,74.50
2019-05-05T00:30:44.859Z,73.30
2019-05-05T00:33:14.508Z,73.50
2019-05-05T00:35:45.114Z,74.70
2019-05-05T00:38:14.396Z,73.70
2019-05-05T00:40:44.298Z,74.10
2019-05-05T00:43:14.760Z,75.40
2019-05-05T00:45:45.503Z,74.30
2019-05-05T00:48:18.790Z,74.50
2019-05-05T00:50:47.859Z,75.90
2019-05-05T00:53:16.764Z,75.30
2019-05-05T00:55:45.747Z,75.00
2019-05-05T00:58:14.531Z,76.10
2019-05-05T01:00:47.482Z,74.90
2019-05-05T01:03:16.988Z,74.40
2019-05-05T01:05:56.159Z,75.20
2019-05-05T01:08:26.418Z,75.10
2019-05-05T01:10:55.122Z,75.30
2019-05-05T01:13:24.579Z,75.40
2019-05-05T01:15:54.230Z,75.30
2019-05-05T01:18:24.587Z,76.50
2019-05-05T01:20:55.228Z,76.10
2019-05-05T01:23:24.447Z,75.50
2019-05-05T01:25:54.489Z,75.80
2019-05-05T01:28:24.931Z,76.40
2019-05-05T01:30:55.385Z,75.80
2019-05-05T01:33:25.646Z,76.30
2019-05-05T01:35:55.242Z,76.40
2019-05-05T01:38:28.370Z,76.70
2019-05-05T01:41:14.764Z,77.30
2019-05-05T01:43:45.223Z,77.20
2019-05-05T01:46:14.424Z,77.10
2019-05-05T01:48:44.519Z,78.10
2019-05-05T01:51:14.368Z,77.90
2019-05-05T01:53:44.285Z,77.80
2019-05-05T01:56:15.263Z,77.60
2019-05-05T01:58:44.165Z,78.80
2019-05-05T02:01:15.156Z,78.60
2019-05-05T02:03:44.265Z,78.60
2019-05-05T02:06:14.230Z,78.10
2019-05-05T02:08:45.285Z,78.40
2019-05-05T02:11:15.629Z,78.10
2019-05-05T02:13:45.063Z,77.90
2019-05-05T02:16:15.079Z,77.90
2019-05-05T02:18:45.033Z,78.30
2019-05-05T02:21:14.322Z,78.00
2019-05-05T02:23:45.171Z,78.80
2019-05-05T02:26:15.304Z,78.80
2019-05-05T02:28:48.932Z,79.30
2019-05-05T02:31:36.045Z,79.70
2019-05-05T02:34:05.837Z,79.90
2019-05-05T02:36:35.490Z,80.30
2019-05-05T02:39:06.724Z,80.20
2019-05-05T02:41:35.591Z,81.00
2019-05-05T02:44:05.250Z,81.20
2019-05-05T02:46:35.954Z,80.50
2019-05-05T02:49:05.587Z,80.80
2019-05-05T02:51:35.508Z,80.90
2019-05-05T02:54:05.040Z,81.30
2019-05-05T02:56:44.273Z,81.00
2019-05-05T02:59:14.916Z,81.90
2019-05-05T03:01:45.188Z,81.50
2019-05-05T03:04:14.232Z,80.90
2019-05-05T03:06:46.234Z,80.60
2019-05-05T03:09:15.499Z,81.10
2019-05-05T03:11:44.282Z,81.20
2019-05-05T03:14:14.348Z,81.00
2019-05-05T03:16:43.604Z,81.20
2019-05-05T03:19:14.266Z,81.00
2019-05-05T03:21:44.162Z,81.80
2019-05-05T03:24:14.385Z,81.60
2019-05-05T03:26:44.374Z,81.90
2019-05-05T03:29:14.791Z,82.10
2019-05-05T03:31:45.853Z,82.60
2019-05-05T03:34:16.347Z,82.20
2019-05-05T03:36:44.270Z,82.00
2019-05-05T03:39:23.899Z,82.10
2019-05-05T03:42:06.175Z,82.30
2019-05-05T03:44:39.255Z,82.20
2019-05-05T03:47:07.984Z,82.80
2019-05-05T03:49:36.808Z,82.00
2019-05-05T03:52:05.548Z,82.60
2019-05-05T03:54:34.369Z,82.60
2019-05-05T03:57:09.184Z,83.00
2019-05-05T03:59:38.950Z,82.60
2019-05-05T04:02:18.671Z,82.50
2019-05-05T04:04:48.931Z,83.20
2019-05-05T04:07:18.244Z,83.30
2019-05-05T04:09:46.986Z,83.70
2019-05-05T04:12:16.594Z,84.20
2019-05-05T04:14:45.418Z,84.10
2019-05-05T04:17:15.743Z,83.50
2019-05-05T04:19:46.223Z,83.60
2019-05-05T04:22:14.924Z,83.60
2019-05-05T04:24:43.912Z,83.70
2019-05-05T04:27:14.618Z,83.20
2019-05-05T04:29:43.994Z,83.50
2019-05-05T04:32:14.086Z,83.70
2019-05-05T04:34:43.884Z,83.70
2019-05-05T04:37:14.673Z,83.60
2019-05-05T04:39:44.337Z,82.60
2019-05-05T04:42:14.316Z,83.50
2019-05-05T04:44:44.971Z,82.70
2019-05-05T04:47:26.944Z,82.80
2019-05-05T04:50:14.929Z,83.10
2019-05-05T04:52:43.997Z,82.30
2019-05-05T04:55:13.856Z,83.70
2019-05-05T04:57:43.797Z,83.30
2019-05-05T05:00:13.730Z,83.40
2019-05-05T05:02:53.924Z,82.40
2019-05-05T05:05:29.848Z,82.60
2019-05-05T05:07:58.547Z,81.80
2019-05-05T05:10:27.267Z,82.20
2019-05-05T05:12:56.024Z,82.00
2019-05-05T05:15:24.714Z,82.40
2019-05-05T05:17:55.124Z,82.40
2019-05-05T05:20:24.672Z,82.70
2019-05-05T05:22:54.414Z,82.20
2019-05-05T05:25:23.999Z,82.20
2019-05-05T05:27:53.596Z,82.30
2019-05-05T05:30:24.245Z,82.60
2019-05-05T05:32:53.954Z,82.70
2019-05-05T05:35:24.386Z,82.70
2019-05-05T05:37:53.968Z,81.80
2019-05-05T05:40:30.979Z,82.00
2019-05-05T05:43:01.446Z,82.00
2019-05-05T05:45:49.866Z,82.10
2019-05-05T05:48:21.084Z,82.20
2019-05-05T05:50:53.552Z,81.40
2019-05-05T05:53:23.940Z,81.70
2019-05-05T05:55:53.763Z,80.80
2019-05-05T05:58:24.536Z,81.30
2019-05-05T06:00:53.979Z,80.70
2019-05-05T06:03:24.392Z,80.30
2019-05-05T06:05:54.013Z,80.20
2019-05-05T06:08:24.278Z,80.00
2019-05-05T06:10:54.698Z,79.40
2019-05-05T06:13:24.170Z,80.10
2019-05-05T06:15:53.546Z,78.60
2019-05-05T06:18:24.382Z,78.10
2019-05-05T06:20:53.702Z,77.90
2019-05-05T06:23:24.036Z,77.90
2019-05-05T06:25:55.200Z,78.40
2019-05-05T06:28:23.655Z,79.40
2019-05-05T06:30:54.459Z,77.70
2019-05-05T06:33:24.146Z,77.10
2019-05-05T06:35:53.831Z,77.10
2019-05-05T06:38:24.211Z,77.00
2019-05-05T06:40:55.110Z,76.80
2019-05-05T06:43:34.836Z,75.80
2019-05-05T06:46:14.656Z,75.50
2019-05-05T06:48:43.918Z,75.00
2019-05-05T06:51:14.069Z,75.20
2019-05-05T06:53:43.557Z,73.20
2019-05-05T06:56:14.618Z,73.60
2019-05-05T06:58:44.787Z,73.30
2019-05-05T07:01:14.344Z,73.10
2019-05-05T07:03:43.841Z,72.80
2019-05-05T07:06:14.576Z,72.80
2019-05-05T07:08:43.918Z,72.40
2019-05-05T07:11:14.538Z,71.40
2019-05-05T07:13:44.298Z,70.60
2019-05-05T07:16:14.913Z,70.00
2019-05-05T07:18:44.633Z,71.00
2019-05-05T07:21:14.375Z,71.20
2019-05-05T07:23:44.693Z,70.30
2019-05-05T07:26:14.403Z,69.90
2019-05-05T07:28:44.883Z,68.60
2019-05-05T07:31:14.330Z,68.20
2019-05-05T07:33:43.764Z,68.90
2019-05-05T07:36:16.050Z,67.00
2019-05-05T07:38:46.425Z,66.60
2019-05-05T07:41:15.158Z,65.50
2019-05-05T07:43:43.899Z,65.00
2019-05-05T07:46:13.583Z,63.80
2019-05-05T07:48:44.208Z,64.40
2019-05-05T07:51:14.201Z,65.20
2019-05-05T07:53:44.304Z,64.50
2019-05-05T07:56:14.510Z,63.70
2019-05-05T07:58:43.992Z,65.00
2019-05-05T08:01:14.167Z,64.90
2019-05-05T08:03:44.540Z,63.90
2019-05-05T08:06:14.523Z,64.60
2019-05-05T08:08:44.307Z,64.20
2019-05-05T08:11:14.794Z,65.20
2019-05-05T08:13:44.345Z,63.70
2019-05-05T08:16:17.788Z,62.20
2019-05-05T08:18:48.051Z,61.20
2019-05-05T08:21:17.961Z,63.00
2019-05-05T08:23:48.472Z,62.50
2019-05-05T08:26:25.031Z,62.60
2019-05-05T08:29:13.572Z,63.40
2019-05-05T08:31:44.282Z,61.60
2019-05-05T08:34:14.265Z,61.90
2019-05-05T08:36:44.617Z,62.70
2019-05-05T08:39:14.267Z,62.40
2019-05-05T08:41:45.395Z,63.60
2019-05-05T08:44:14.272Z,63.50
2019-05-05T08:46:44.587Z,61.90
2019-05-05T08:49:13.801Z,60.60
2019-05-05T08:51:44.301Z,60.30
2019-05-05T08:54:14.351Z,57.80
2019-05-05T08:56:44.715Z,57.30
2019-05-05T08:59:14.318Z,58.00
2019-05-05T09:01:44.941Z,57.30
2019-05-05T09:04:14.276Z,57.80
2019-05-05T09:06:43.724Z,57.90
2019-05-05T09:09:14.425Z,59.00
2019-05-05T09:11:43.903Z,59.80
2019-05-05T09:14:14.817Z,59.10
2019-05-05T09:16:44.786Z,58.90
2019-05-05T09:19:15.418Z,58.50
2019-05-05T09:21:44.852Z,58.10
2019-05-05T09:24:29.931Z,57.90
2019-05-05T09:27:03.648Z,57.50
2019-05-05T09:29:39.734Z,56.70
2019-05-05T09:32:08.458Z,57.40
2019-05-05T09:34:37.223Z,58.20
2019-05-05T09:37:05.952Z,56.50
2019-05-05T09:39:34.698Z,58.20
2019-05-05T09:42:04.123Z,56.30
2019-05-05T09:44:34.673Z,55.00
2019-05-05T09:47:04.857Z,54.00
2019-05-05T09:49:33.931Z,54.40
2019-05-05T09:52:04.793Z,54.00
2019-05-05T09:54:34.538Z,54.80
2019-05-05T09:57:04.483Z,55.10
2019-05-05T09:59:34.633Z,55.00
2019-05-05T10:02:04.505Z,54.80
2019-05-05T10:04:36.632Z,54.40
2019-05-05T10:07:05.560Z,55.20
2019-05-05T10:09:34.614Z,56.30
2019-05-05T10:12:04.747Z,53.40
2019-05-05T10:14:34.115Z,53.60
2019-05-05T10:17:04.963Z,52.20
2019-05-05T10:19:35.440Z,52.30
2019-05-05T10:22:05.130Z,51.80
2019-05-05T10:24:35.646Z,52.60
2019-05-05T10:27:05.252Z,50.70
2019-05-05T10:29:33.977Z,49.50
2019-05-05T10:32:04.627Z,49.30
2019-05-05T10:34:33.578Z,50.00
2019-05-05T10:37:04.175Z,49.80
2019-05-05T10:39:34.798Z,49.50
2019-05-05T10:42:04.067Z,48.60
2019-05-05T10:44:34.056Z,48.20
2019-05-05T10:47:04.583Z,46.80
2019-05-05T10:49:33.804Z,49.00
2019-05-05T10:52:03.718Z,47.50
2019-05-05T10:54:43.182Z,47.50
2019-05-05T10:57:03.972Z,48.00
2019-05-05T10:59:34.332Z,47.60
2019-05-05T11:02:04.981Z,45.80
2019-05-05T11:04:34.933Z,46.70
2019-05-05T11:07:04.562Z,46.70
2019-05-05T11:09:34.090Z,46.70
2019-05-05T11:12:02.871Z,46.60
2019-05-05T11:14:33.523Z,47.30
2019-05-05T11:17:03.927Z,45.10
2019-05-05T11:19:33.620Z,43.70
2019-05-05T11:22:02.499Z,43.30
2019-05-05T11:24:31.399Z,44.10
2019-05-05T11:27:00.187Z,43.60
2019-05-05T11:29:29.001Z,44.00
2019-05-05T11:31:59.303Z,41.40
2019-05-05T11:34:28.487Z,41.80
2019-05-05T11:36:59.951Z,42.30
2019-05-05T11:39:28.751Z,42.90
2019-05-05T11:41:57.498Z,45.20
2019-05-05T11:44:26.218Z,43.20
2019-05-05T11:46:55.856Z,42.10
2019-05-05T11:49:24.809Z,43.20
2019-05-05T11:51:54.350Z,43.70
2019-05-05T11:54:24.637Z,44.40
2019-05-05T11:56:54.018Z,46.30
2019-05-05T11:59:23.844Z,44.10
2019-05-05T12:01:54.880Z,43.00
2019-05-05T12:04:23.939Z,44.30
2019-05-05T12:06:53.719Z,44.30
2019-05-05T12:09:24.821Z,44.60
2019-05-05T12:11:54.534Z,45.80
2019-05-05T12:14:27.132Z,46.40
2019-05-05T12:16:55.646Z,45.40
2019-05-05T12:19:24.537Z,46.00
2019-05-05T12:21:54.862Z,46.30
2019-05-05T12:24:25.287Z,46.60
2019-05-05T12:26:58.616Z,45.40
2019-05-05T12:29:27.554Z,44.40
2019-05-05T12:31:56.279Z,44.20
2019-05-05T12:34:25.175Z,44.60
2019-05-05T12:36:54.173Z,45.60
2019-05-05T12:39:23.058Z,44.70
2019-05-05T12:41:54.105Z,44.90
2019-05-05T12:44:24.019Z,46.10
2019-05-05T12:47:14.438Z,48.00
2019-05-05T12:49:44.475Z,48.50
2019-05-05T12:52:13.880Z,50.10
2019-05-05T12:54:44.086Z,52.10
2019-05-05T12:57:13.797Z,54.80
2019-05-05T12:59:44.430Z,57.60
2019-05-05T13:02:14.277Z,57.70
2019-05-05T13:04:43.356Z,58.90
2019-05-05T13:07:13.638Z,61.00
2019-05-05T13:09:44.122Z,61.40
2019-05-05T13:12:14.871Z,61.10
2019-05-05T13:14:43.905Z,63.30
2019-05-05T13:17:14.217Z,66.30
2019-05-05T13:19:47.346Z,67.00
2019-05-05T13:22:33.822Z,66.20
2019-05-05T13:25:05.180Z,65.50
2019-05-05T13:27:35.652Z,64.30
2019-05-05T13:30:07.292Z,64.60
2019-05-05T13:32:36.069Z,60.80
2019-05-05T13:35:07.085Z,61.30
2019-05-05T13:37:35.929Z,60.50
2019-05-05T13:40:06.597Z,61.90
2019-05-05T13:42:35.322Z,61.50
2019-05-05T13:45:26.738Z,59.50
2019-05-05T13:47:55.559Z,58.10
2019-05-05T13:50:26.092Z,56.60
2019-05-05T13:52:54.850Z,53.80
2019-05-05T13:55:24.129Z,52.10
2019-05-05T13:57:54.797Z,51.30
2019-05-05T14:00:25.615Z,51.70
2019-05-05T14:02:54.698Z,49.60
2019-05-05T14:05:24.115Z,50.40
2019-05-05T14:07:53.680Z,48.60
2019-05-05T14:10:23.627Z,49.70
2019-05-05T14:12:52.551Z,51.20
2019-05-05T14:15:23.364Z,51.10
2019-05-05T14:17:54.253Z,49.60
2019-05-05T14:20:23.960Z,52.60
2019-05-05T14:22:54.342Z,55.50
2019-05-05T14:25:27.835Z,56.70
2019-05-05T14:27:56.564Z,56.90
2019-05-05T14:30:38.672Z,55.10
2019-05-05T14:33:09.061Z,55.50
2019-05-05T14:35:53.968Z,55.50
2019-05-05T14:38:39.082Z,56.00
2019-05-05T14:41:07.864Z,54.30
2019-05-05T14:43:37.596Z,55.10
2019-05-05T14:46:06.315Z,54.20
2019-05-05T14:48:37.144Z,53.30
2019-05-05T14:51:05.448Z,53.60
2019-05-05T14:53:34.833Z,51.40
2019-05-05T14:56:04.660Z,50.70
2019-05-05T14:58:33.504Z,50.90
2019-05-05T15:01:04.305Z,49.10
2019-05-05T15:03:33.669Z,50.00
2019-05-05T15:06:09.645Z,48.50
2019-05-05T15:08:55.378Z,48.30
2019-05-05T15:11:40.775Z,46.90
2019-05-05T15:14:09.565Z,44.80
2019-05-05T15:16:38.314Z,41.20
2019-05-05T15:19:07.084Z,41.30
2019-05-05T15:21:35.916Z,42.30
2019-05-05T15:24:04.762Z,40.40
2019-05-05T15:26:34.437Z,40.00
2019-05-05T15:29:03.369Z,38.20
2019-05-05T15:31:34.082Z,37.50
2019-05-05T15:34:04.148Z,36.10
2019-05-05T15:36:33.506Z,37.80
2019-05-05T15:39:04.400Z,36.80
2019-05-05T15:41:34.120Z,36.80
2019-05-05T15:44:03.740Z,36.70
2019-05-05T15:46:33.738Z,37.30
2019-05-05T15:49:04.216Z,38.60
2019-05-05T15:51:34.341Z,39.70
2019-05-05T15:54:03.900Z,41.60
2019-05-05T15:56:34.085Z,42.30
2019-05-05T15:59:03.936Z,46.60
2019-05-05T16:01:34.541Z,51.10
2019-05-05T16:04:03.701Z,52.90
2019-05-05T16:06:34.329Z,56.00
2019-05-05T16:09:04.484Z,58.60
2019-05-05T16:11:33.944Z,60.80
2019-05-05T16:14:03.923Z,61.30
2019-05-05T16:16:40.324Z,64.30
2019-05-05T16:19:14.000Z,65.10
2019-05-05T16:21:50.147Z,65.70
2019-05-05T16:24:20.585Z,63.50
2019-05-05T16:26:50.105Z,65.30
2019-05-05T16:29:19.214Z,62.60
2019-05-05T16:31:48.145Z,60.30
2019-05-05T16:34:16.920Z,60.90
2019-05-05T16:36:45.835Z,61.70
2019-05-05T16:39:16.398Z,59.80
2019-05-05T16:41:45.164Z,58.80
2019-05-05T16:44:14.117Z,57.20
2019-05-05T16:46:44.268Z,55.70
2019-05-05T16:49:14.036Z,54.90
2019-05-05T16:51:45.278Z,55.10
2019-05-05T16:54:15.584Z,54.10
2019-05-05T16:56:44.370Z,54.30
2019-05-05T16:59:13.894Z,56.20
2019-05-05T17:01:44.569Z,55.60
2019-05-05T17:04:14.238Z,57.10
2019-05-05T17:06:45.491Z,56.80
2019-05-05T17:09:14.948Z,56.20
2019-05-05T17:11:45.713Z,59.80
2019-05-05T17:14:16.100Z,57.80
2019-05-05T17:16:46.391Z,53.60
2019-05-05T17:19:25.776Z,52.90
2019-05-05T17:22:07.980Z,51.70
2019-05-05T17:24:38.834Z,51.00
2019-05-05T17:27:07.100Z,51.90
2019-05-05T17:29:35.848Z,52.70
2019-05-05T17:32:06.546Z,53.30
2019-05-05T17:34:35.310Z,54.10
2019-05-05T17:37:04.960Z,54.40
2019-05-05T17:39:35.303Z,53.80
2019-05-05T17:42:18.718Z,54.00
2019-05-05T17:44:58.950Z,55.10
2019-05-05T17:47:34.337Z,54.50
2019-05-05T17:50:08.431Z,55.40
2019-05-05T17:52:39.504Z,54.80
2019-05-05T17:55:27.798Z,53.50
2019-05-05T17:58:01.573Z,53.40
2019-05-05T18:00:29.611Z,55.10
2019-05-05T18:02:59.280Z,53.30
2019-05-05T18:05:45.766Z,53.50
2019-05-05T18:08:33.804Z,54.30
2019-05-05T18:11:03.919Z,51.60
2019-05-05T18:13:54.353Z,53.30
2019-05-05T18:16:26.932Z,53.30
2019-05-05T18:18:55.142Z,52.10
2019-05-05T18:21:24.136Z,52.50
2019-05-05T18:23:54.573Z,53.70
2019-05-05T18:26:24.321Z,53.30
2019-05-05T18:28:54.467Z,54.20
2019-05-05T18:31:24.289Z,54.50
2019-05-05T18:33:54.295Z,54.20
2019-05-05T18:36:23.507Z,55.00
2019-05-05T18:38:53.807Z,54.40
2019-05-05T18:41:44.017Z,55.20
2019-05-05T18:44:20.510Z,56.10
2019-05-05T18:46:51.114Z,56.20
2019-05-05T18:49:20.580Z,55.90
2019-05-05T18:51:49.788Z,56.50
2019-05-05T18:54:19.354Z,56.50
2019-05-05T18:56:50.378Z,57.10
2019-05-05T18:59:19.340Z,56.70
2019-05-05T19:02:03.588Z,57.30
2019-05-05T19:04:34.767Z,57.40
2019-05-05T19:07:05.144Z,56.30
2019-05-05T19:09:34.007Z,55.70
2019-05-05T19:12:10.279Z,57.30
2019-05-05T19:14:39.339Z,57.00
2019-05-05T19:17:08.147Z,56.60
2019-05-05T19:19:38.990Z,56.20
2019-05-05T19:22:13.786Z,55.90
2019-05-05T19:24:44.066Z,56.70
2019-05-05T19:27:15.347Z,56.70
2019-05-05T19:29:46.176Z,56.20
2019-05-05T19:32:15.341Z,56.20
2019-05-05T19:34:44.323Z,56.80
2019-05-05T19:37:14.006Z,56.00
2019-05-05T19:39:42.882Z,55.60
2019-05-05T19:42:11.657Z,56.10
2019-05-05T19:44:40.460Z,56.10
2019-05-05T19:47:10.862Z,55.20
2019-05-05T19:49:41.235Z,55.30
2019-05-05T19:52:09.992Z,55.20
2019-05-05T19:54:39.760Z,55.20
2019-05-05T19:57:08.510Z,55.40
2019-05-05T19:59:37.227Z,55.50
2019-05-05T20:02:07.382Z,54.90
2019-05-05T20:04:36.223Z,54.70
2019-05-05T20:07:05.815Z,55.90
2019-05-05T20:09:34.603Z,56.00
2019-05-05T20:12:04.027Z,55.30
2019-05-05T20:14:34.216Z,55.80
2019-05-05T20:17:10.521Z,55.80
2019-05-05T20:19:40.815Z,55.50
2019-05-05T20:22:09.506Z,55.90
2019-05-05T20:24:39.207Z,56.10
2019-05-05T20:27:08.078Z,56.00
2019-05-05T20:29:37.587Z,56.30
2019-05-05T20:32:06.467Z,56.30
2019-05-05T20:34:37.868Z,56.00
2019-05-05T20:37:08.135Z,56.70
2019-05-05T20:39:37.943Z,56.70
2019-05-05T20:42:07.270Z,56.90
2019-05-05T20:44:36.113Z,58.30
2019-05-05T20:47:05.207Z,58.10
2019-05-05T20:49:34.611Z,56.00
2019-05-05T20:52:03.858Z,56.30
2019-05-05T20:54:32.680Z,57.90
2019-05-05T20:57:01.515Z,56.20
2019-05-05T20:59:31.237Z,55.40
2019-05-05T21:02:01.430Z,55.60
2019-05-05T21:04:30.160Z,55.90
2019-05-05T21:07:00.104Z,56.00
2019-05-05T21:09:28.905Z,55.90
2019-05-05T21:11:57.620Z,56.20
2019-05-05T21:14:34.278Z,56.90
2019-05-05T21:16:56.753Z,56.60
2019-05-05T21:19:25.934Z,57.00
2019-05-05T21:21:56.410Z,57.70
2019-05-05T21:24:25.277Z,57.30
2019-05-05T21:26:55.560Z,57.50
2019-05-05T21:29:24.284Z,58.00
2019-05-05T21:31:54.829Z,57.80
2019-05-05T21:34:24.784Z,57.90
2019-05-05T21:36:54.143Z,57.90
2019-05-05T21:39:24.863Z,58.10
2019-05-05T21:41:53.460Z,57.50
2019-05-05T21:44:22.632Z,57.90
2019-05-05T21:46:53.681Z,57.90
2019-05-05T21:49:24.204Z,58.30
2019-05-05T21:52:00.507Z,57.90
2019-05-05T21:54:39.541Z,58.20
2019-05-05T21:57:18.875Z,58.10
2019-05-05T21:59:55.698Z,59.40
2019-05-05T22:02:18.352Z,59.10
2019-05-05T22:04:47.148Z,58.40
2019-05-05T22:07:16.038Z,57.90
2019-05-05T22:09:44.754Z,58.10
2019-05-05T22:12:13.823Z,57.80
2019-05-05T22:14:43.923Z,58.50
2019-05-05T22:17:14.632Z,57.70
2019-05-05T22:19:47.815Z,57.90
2019-05-05T22:22:18.117Z,57.90
2019-05-05T22:24:46.939Z,57.90
2019-05-05T22:27:15.735Z,58.20
2019-05-05T22:29:44.739Z,58.10
2019-05-05T22:32:14.036Z,58.90
2019-05-05T22:34:44.421Z,59.30
2019-05-05T22:37:14.271Z,59.20
2019-05-05T22:39:44.561Z,58.70
2019-05-05T22:42:13.732Z,59.20
2019-05-05T22:44:43.836Z,59.50
2019-05-05T22:47:13.896Z,59.60
2019-05-05T22:49:44.372Z,61.10
2019-05-05T22:52:14.436Z,61.60
2019-05-05T22:54:44.397Z,62.60
2019-05-05T22:57:14.029Z,62.30
2019-05-05T22:59:42.999Z,61.90
2019-05-05T23:02:11.706Z,62.70
2019-05-05T23:04:43.830Z,62.60
2019-05-05T23:07:14.404Z,63.20
2019-05-05T23:09:44.340Z,63.10
2019-05-05T23:12:13.706Z,64.00
2019-05-05T23:14:43.700Z,64.40
2019-05-05T23:17:21.214Z,64.70
2019-05-05T23:19:53.423Z,65.40
2019-05-05T23:22:27.832Z,65.10
2019-05-05T23:25:14.526Z,66.10
2019-05-05T23:27:50.093Z,67.20
2019-05-05T23:30:23.871Z,66.70
2019-05-05T23:32:54.862Z,67.10
2019-05-05T23:35:24.073Z,67.90
2019-05-05T23:37:55.306Z,67.70
2019-05-05T23:40:25.659Z,68.20
2019-05-05T23:42:54.452Z,68.70
2019-05-05T23:45:24.798Z,68.50
2019-05-05T23:47:54.417Z,68.80
2019-05-05T23:50:24.201Z,69.00
2019-05-05T23:52:54.565Z,68.50
2019-05-05T23:55:24.105Z,69.20
2019-05-05T23:57:54.573Z,69.10
